createdAt,value
2023-04-16T00:00:59.735Z,100.00
2023-04-16T00:03:28.048Z,100.00
2023-04-16T00:05:56.883Z,100.00
2023-04-16T00:08:25.540Z,100.00
2023-04-16T00:10:55.686Z,100.00
2023-04-16T00:13:23.652Z,100.00
2023-04-16T00:15:51.574Z,100.00
2023-04-16T00:18:21.180Z,100.00
2023-04-16T00:20:49.360Z,100.00
2023-04-16T00:23:17.372Z,100.00
2023-04-16T00:25:45.326Z,100.00
2023-04-16T00:28:14.687Z,100.00
2023-04-16T00:30:42.719Z,100.00
2023-04-16T00:33:10.763Z,100.00
2023-04-16T00:35:38.722Z,100.00
2023-04-16T00:38:06.655Z,100.00
2023-04-16T00:40:34.595Z,100.00
2023-04-16T00:43:02.573Z,100.00
2023-04-16T00:45:31.875Z,100.00
2023-04-16T00:48:00.628Z,100.00
2023-04-16T00:50:28.704Z,100.00
2023-04-16T00:52:56.680Z,100.00
2023-04-16T00:55:24.709Z,100.00
2023-04-16T00:57:52.683Z,100.00
2023-04-16T01:00:21.652Z,100.00
2023-04-16T01:02:51.096Z,100.00
2023-04-16T01:05:19.269Z,100.00
2023-04-16T01:07:47.236Z,100.00
2023-04-16T01:10:15.207Z,100.00
2023-04-16T01:12:43.165Z,100.00
2023-04-16T01:15:11.953Z,100.00
2023-04-16T01:17:40.041Z,100.00
2023-04-16T01:20:10.156Z,100.00
2023-04-16T01:22:39.498Z,100.00
2023-04-16T01:25:07.803Z,100.00
2023-04-16T01:27:37.607Z,100.00
2023-04-16T01:30:07.014Z,100.00
2023-04-16T01:32:34.972Z,100.00
2023-04-16T01:35:02.970Z,100.00
2023-04-16T01:37:31.030Z,100.00
2023-04-16T01:40:00.435Z,100.00
2023-04-16T01:42:28.419Z,100.00
2023-04-16T01:44:56.364Z,100.00
2023-04-16T01:47:24.398Z,100.00
2023-04-16T01:49:52.432Z,100.00
2023-04-16T01:52:20.339Z,100.00
2023-04-16T01:54:48.279Z,100.00
2023-04-16T01:57:17.589Z,100.00
2023-04-16T01:59:45.496Z,100.00
2023-04-16T02:02:14.650Z,100.00
2023-04-16T02:04:43.283Z,100.00
2023-04-16T02:07:11.286Z,100.00
2023-04-16T02:09:39.656Z,100.00
2023-04-16T02:12:07.780Z,100.00
2023-04-16T02:14:37.184Z,100.00
2023-04-16T02:17:05.164Z,100.00
2023-04-16T02:19:33.134Z,100.00
2023-04-16T02:22:01.740Z,100.00
2023-04-16T02:24:29.649Z,100.00
2023-04-16T02:26:58.269Z,100.00
2023-04-16T02:29:26.248Z,100.00
2023-04-16T02:31:55.599Z,100.00
2023-04-16T02:34:23.599Z,100.00
2023-04-16T02:36:51.537Z,100.00
2023-04-16T02:39:20.032Z,100.00
2023-04-16T02:41:47.998Z,100.00
2023-04-16T02:44:16.012Z,100.00
2023-04-16T02:46:43.941Z,100.00
2023-04-16T02:49:13.267Z,100.00
2023-04-16T02:51:41.245Z,100.00
2023-04-16T02:54:09.194Z,100.00
2023-04-16T02:56:37.164Z,100.00
2023-04-16T02:59:05.238Z,100.00
2023-04-16T03:01:33.255Z,100.00
2023-04-16T03:04:01.328Z,100.00
2023-04-16T03:06:31.482Z,100.00
2023-04-16T03:08:59.460Z,100.00
2023-04-16T03:11:27.404Z,100.00
2023-04-16T03:13:55.506Z,100.00
2023-04-16T03:16:23.564Z,100.00
2023-04-16T03:18:51.561Z,100.00
2023-04-16T03:21:19.571Z,100.00
2023-04-16T03:23:49.055Z,100.00
2023-04-16T03:26:17.014Z,100.00
2023-04-16T03:28:44.949Z,100.00
2023-04-16T03:31:13.135Z,100.00
2023-04-16T03:33:41.340Z,100.00
2023-04-16T03:36:10.052Z,100.00
2023-04-16T03:38:37.983Z,100.00
2023-04-16T03:41:07.429Z,100.00
2023-04-16T03:43:35.403Z,100.00
2023-04-16T03:46:03.402Z,100.00
2023-04-16T03:48:31.355Z,100.00
2023-04-16T03:50:59.305Z,100.00
2023-04-16T03:53:27.228Z,100.00
2023-04-16T03:55:55.416Z,100.00
2023-04-16T03:58:24.750Z,100.00
2023-04-16T04:00:54.935Z,100.00
2023-04-16T04:03:23.081Z,100.00
2023-04-16T04:05:51.312Z,100.00
2023-04-16T04:08:19.299Z,100.00
2023-04-16T04:10:47.201Z,100.00
2023-04-16T04:13:15.170Z,100.00
2023-04-16T04:15:45.170Z,100.00
2023-04-16T04:18:13.091Z,100.00
2023-04-16T04:20:41.331Z,100.00
2023-04-16T04:23:09.298Z,100.00
2023-04-16T04:25:37.239Z,100.00
2023-04-16T04:28:05.441Z,100.00
2023-04-16T04:30:33.589Z,100.00
2023-04-16T04:33:02.991Z,100.00
2023-04-16T04:35:30.966Z,100.00
2023-04-16T04:37:58.932Z,100.00
2023-04-16T04:40:26.922Z,100.00
2023-04-16T04:42:55.091Z,100.00
2023-04-16T04:45:25.503Z,98.38
2023-04-16T04:47:53.700Z,96.27
2023-04-16T04:50:23.091Z,95.39
2023-04-16T04:52:51.065Z,95.05
2023-04-16T04:55:19.265Z,96.72
2023-04-16T04:57:47.157Z,98.41
2023-04-16T05:00:15.206Z,97.90
2023-04-16T05:02:43.343Z,98.35
2023-04-16T05:05:11.453Z,96.32
2023-04-16T05:07:40.762Z,94.71
2023-04-16T05:10:10.221Z,98.50
2023-04-16T05:12:38.187Z,95.82
2023-04-16T05:15:06.804Z,96.70
2023-04-16T05:17:34.776Z,96.51
2023-04-16T05:20:02.777Z,97.18
2023-04-16T05:22:30.694Z,99.30
2023-04-16T05:25:00.049Z,98.37
2023-04-16T05:27:28.024Z,97.05
2023-04-16T05:29:55.992Z,95.87
2023-04-16T05:32:26.906Z,95.17
2023-04-16T05:34:55.051Z,95.63
2023-04-16T05:37:23.005Z,94.07
2023-04-16T05:39:51.234Z,91.00
2023-04-16T05:42:20.577Z,91.31
2023-04-16T05:44:48.531Z,89.53
2023-04-16T05:47:17.558Z,86.47
2023-04-16T05:49:45.520Z,86.75
2023-04-16T05:52:13.479Z,86.87
2023-04-16T05:54:41.440Z,87.92
2023-04-16T05:57:09.432Z,85.43
2023-04-16T05:59:38.730Z,83.45
2023-04-16T06:02:06.748Z,81.25
2023-04-16T06:04:35.779Z,79.12
2023-04-16T06:07:03.760Z,79.08
2023-04-16T06:09:31.749Z,75.66
2023-04-16T06:11:59.719Z,71.71
2023-04-16T06:14:27.665Z,70.15
2023-04-16T06:16:57.041Z,68.65
2023-04-16T06:19:25.094Z,67.19
2023-04-16T06:21:54.014Z,65.94
2023-04-16T06:24:22.106Z,74.07
2023-04-16T06:26:50.077Z,78.06
2023-04-16T06:29:18.015Z,79.97
2023-04-16T06:31:45.972Z,80.24
2023-04-16T06:34:15.346Z,78.98
2023-04-16T06:36:43.264Z,79.01
2023-04-16T06:39:11.550Z,78.19
2023-04-16T06:41:39.729Z,77.69
2023-04-16T06:44:07.689Z,77.72
2023-04-16T06:46:35.826Z,79.04
2023-04-16T06:49:03.785Z,79.64
2023-04-16T06:51:33.107Z,76.66
2023-04-16T06:54:01.147Z,73.52
2023-04-16T06:56:30.323Z,73.89
2023-04-16T06:58:59.082Z,71.31
2023-04-16T07:01:27.125Z,72.29
2023-04-16T07:03:55.778Z,70.82
2023-04-16T07:06:23.895Z,66.25
2023-04-16T07:08:53.192Z,61.40
2023-04-16T07:11:21.200Z,58.67
2023-04-16T07:13:50.166Z,63.53
2023-04-16T07:16:18.940Z,60.34
2023-04-16T07:18:46.958Z,60.82
2023-04-16T07:21:14.899Z,60.00
2023-04-16T07:23:42.937Z,61.05
2023-04-16T07:26:12.688Z,62.76
2023-04-16T07:28:40.687Z,67.00
2023-04-16T07:31:09.369Z,67.60
2023-04-16T07:33:37.305Z,67.84
2023-04-16T07:36:05.667Z,69.48
2023-04-16T07:38:34.727Z,66.83
2023-04-16T07:41:02.610Z,67.17
2023-04-16T07:43:31.910Z,68.25
2023-04-16T07:45:59.859Z,67.22
2023-04-16T07:48:27.976Z,66.27
2023-04-16T07:50:55.908Z,66.24
2023-04-16T07:53:23.881Z,66.38
2023-04-16T07:55:51.853Z,65.13
2023-04-16T07:58:19.767Z,63.58
2023-04-16T08:00:50.858Z,63.08
2023-04-16T08:03:19.150Z,60.31
2023-04-16T08:05:47.177Z,60.16
2023-04-16T08:08:15.133Z,57.60
2023-04-16T08:10:43.100Z,58.67
2023-04-16T08:13:11.117Z,58.89
2023-04-16T08:15:39.110Z,58.89
2023-04-16T08:18:12.960Z,59.82
2023-04-16T08:20:41.018Z,58.27
2023-04-16T08:23:09.028Z,56.25
2023-04-16T08:25:37.027Z,56.93
2023-04-16T08:28:05.239Z,54.94
2023-04-16T08:30:33.169Z,56.53
2023-04-16T08:33:01.482Z,56.05
2023-04-16T08:35:30.832Z,57.08
2023-04-16T08:38:02.196Z,56.51
2023-04-16T08:40:30.700Z,53.99
2023-04-16T08:43:00.188Z,54.25
2023-04-16T08:45:28.237Z,53.38
2023-04-16T08:47:56.612Z,52.77
2023-04-16T08:50:25.219Z,52.82
2023-04-16T08:52:54.953Z,54.28
2023-04-16T08:55:24.576Z,51.10
2023-04-16T08:57:56.292Z,48.79
2023-04-16T09:00:24.328Z,52.11
2023-04-16T09:02:52.759Z,49.70
2023-04-16T09:05:25.471Z,50.01
2023-04-16T09:07:55.068Z,50.65
2023-04-16T09:10:23.212Z,48.95
2023-04-16T09:12:51.306Z,49.36
2023-04-16T09:15:19.204Z,48.43
2023-04-16T09:17:47.150Z,49.29
2023-04-16T09:20:16.087Z,48.26
2023-04-16T09:22:44.230Z,47.89
2023-04-16T09:25:13.528Z,47.94
2023-04-16T09:27:41.510Z,50.34
2023-04-16T09:30:23.195Z,48.00
2023-04-16T09:32:51.385Z,49.29
2023-04-16T09:35:19.779Z,48.65
2023-04-16T09:37:56.566Z,46.09
2023-04-16T09:40:27.771Z,47.09
2023-04-16T09:42:58.432Z,45.11
2023-04-16T09:45:26.399Z,43.88
2023-04-16T09:47:54.375Z,42.16
2023-04-16T09:50:22.386Z,44.01
2023-04-16T09:52:51.733Z,44.08
2023-04-16T09:55:24.134Z,43.67
2023-04-16T09:57:59.511Z,46.12
2023-04-16T10:00:27.437Z,46.08
2023-04-16T10:03:04.979Z,45.05
2023-04-16T10:05:33.031Z,44.57
2023-04-16T10:08:01.698Z,44.52
2023-04-16T10:10:29.774Z,44.53
2023-04-16T10:12:59.133Z,44.13
2023-04-16T10:15:27.077Z,43.99
2023-04-16T10:17:55.256Z,44.17
2023-04-16T10:20:23.756Z,44.03
2023-04-16T10:22:51.692Z,44.04
2023-04-16T10:25:19.725Z,44.43
2023-04-16T10:27:47.699Z,39.97
2023-04-16T10:30:17.080Z,38.86
2023-04-16T10:32:45.476Z,35.82
2023-04-16T10:35:16.754Z,36.17
2023-04-16T10:37:45.380Z,35.68
2023-04-16T10:40:31.221Z,35.38
2023-04-16T10:42:59.343Z,34.10
2023-04-16T10:45:33.169Z,33.87
2023-04-16T10:48:01.221Z,34.65
2023-04-16T10:50:36.149Z,34.90
2023-04-16T10:53:25.431Z,34.79
2023-04-16T10:56:00.290Z,35.54
2023-04-16T10:58:28.723Z,36.17
2023-04-16T11:01:00.233Z,36.53
2023-04-16T11:03:32.244Z,36.81
2023-04-16T11:06:12.550Z,37.54
2023-04-16T11:08:53.914Z,38.45
2023-04-16T11:11:23.364Z,39.90
2023-04-16T11:13:51.279Z,40.25
2023-04-16T11:16:20.604Z,42.49
2023-04-16T11:18:51.333Z,43.75
2023-04-16T11:21:19.840Z,41.09
2023-04-16T11:23:49.448Z,42.62
2023-04-16T11:26:27.468Z,40.79
2023-04-16T11:28:56.280Z,43.84
2023-04-16T11:31:27.332Z,41.67
2023-04-16T11:33:57.282Z,41.04
2023-04-16T11:36:27.481Z,40.82
2023-04-16T11:39:02.542Z,40.59
2023-04-16T11:41:30.539Z,41.61
2023-04-16T11:43:58.526Z,41.00
2023-04-16T11:46:40.722Z,40.58
2023-04-16T11:49:09.002Z,39.78
2023-04-16T11:51:41.234Z,39.38
2023-04-16T11:54:11.862Z,38.95
2023-04-16T11:56:40.410Z,41.32
2023-04-16T11:59:11.991Z,39.70
2023-04-16T12:01:42.318Z,39.81
2023-04-16T12:04:10.572Z,40.10
2023-04-16T12:06:38.727Z,40.43
2023-04-16T12:09:24.334Z,40.35
2023-04-16T12:11:52.412Z,41.93
2023-04-16T12:14:20.449Z,43.88
2023-04-16T12:16:49.813Z,46.33
2023-04-16T12:19:17.791Z,46.38
2023-04-16T12:21:46.350Z,47.35
2023-04-16T12:24:15.416Z,46.44
2023-04-16T12:26:43.982Z,44.75
2023-04-16T12:29:19.521Z,45.46
2023-04-16T12:31:49.052Z,45.13
2023-04-16T12:34:17.364Z,43.17
2023-04-16T12:36:45.927Z,40.61
2023-04-16T12:39:14.789Z,41.56
2023-04-16T12:41:43.711Z,41.83
2023-04-16T12:44:13.349Z,40.36
2023-04-16T12:46:41.784Z,39.92
2023-04-16T12:49:11.610Z,40.71
2023-04-16T12:51:39.882Z,42.87
2023-04-16T12:54:08.516Z,42.34
2023-04-16T12:56:36.825Z,41.20
2023-04-16T12:59:04.994Z,41.51
2023-04-16T13:01:36.150Z,41.05
2023-04-16T13:04:04.283Z,40.71
2023-04-16T13:06:33.892Z,41.90
2023-04-16T13:09:01.893Z,42.87
2023-04-16T13:11:29.864Z,42.86
2023-04-16T13:13:58.252Z,45.05
2023-04-16T13:16:26.347Z,44.93
2023-04-16T13:18:54.441Z,45.08
2023-04-16T13:21:23.790Z,46.16
2023-04-16T13:23:54.057Z,44.87
2023-04-16T13:26:22.179Z,45.20
2023-04-16T13:28:50.169Z,45.69
2023-04-16T13:31:20.578Z,45.00
2023-04-16T13:33:48.655Z,44.77
2023-04-16T13:36:16.610Z,45.80
2023-04-16T13:38:44.638Z,45.36
2023-04-16T13:41:13.946Z,45.50
2023-04-16T13:43:41.971Z,46.25
2023-04-16T13:46:09.914Z,46.43
2023-04-16T13:48:37.912Z,46.67
2023-04-16T13:51:06.078Z,47.33
2023-04-16T13:53:34.062Z,46.03
2023-04-16T13:56:03.717Z,46.22
2023-04-16T13:58:33.020Z,46.67
2023-04-16T14:01:01.264Z,46.93
2023-04-16T14:03:29.388Z,46.22
2023-04-16T14:05:57.400Z,45.15
2023-04-16T14:08:25.441Z,44.31
2023-04-16T14:10:55.592Z,44.60
2023-04-16T14:13:23.675Z,45.88
2023-04-16T14:15:54.603Z,45.59
2023-04-16T14:18:22.552Z,47.73
2023-04-16T14:20:50.732Z,45.35
2023-04-16T14:23:18.782Z,45.88
2023-04-16T14:25:46.729Z,45.74
2023-04-16T14:28:15.720Z,45.71
2023-04-16T14:30:43.887Z,46.72
2023-04-16T14:33:13.265Z,46.37
2023-04-16T14:35:41.230Z,45.59
2023-04-16T14:38:09.260Z,47.14
2023-04-16T14:40:37.255Z,46.33
2023-04-16T14:43:05.383Z,46.61
2023-04-16T14:45:33.386Z,44.09
2023-04-16T14:48:01.463Z,45.55
2023-04-16T14:50:30.950Z,46.34
2023-04-16T14:52:58.942Z,46.20
2023-04-16T14:55:26.927Z,46.81
2023-04-16T14:57:54.896Z,46.46
2023-04-16T15:00:23.691Z,47.63
2023-04-16T15:02:51.906Z,47.57
2023-04-16T15:05:19.978Z,48.83
2023-04-16T15:07:49.314Z,46.52
2023-04-16T15:10:17.419Z,47.42
2023-04-16T15:12:45.430Z,47.92
2023-04-16T15:15:13.387Z,48.12
2023-04-16T15:17:41.619Z,48.84
2023-04-16T15:20:10.691Z,49.22
2023-04-16T15:22:38.638Z,48.85
2023-04-16T15:25:08.949Z,50.29
2023-04-16T15:27:36.957Z,50.07
2023-04-16T15:30:06.523Z,51.45
2023-04-16T15:32:34.595Z,51.94
2023-04-16T15:35:03.579Z,52.38
2023-04-16T15:37:31.524Z,52.80
2023-04-16T15:39:59.486Z,53.77
2023-04-16T15:42:28.785Z,55.11
2023-04-16T15:44:56.708Z,57.25
2023-04-16T15:47:24.667Z,58.04
2023-04-16T15:49:52.623Z,57.71
2023-04-16T15:52:21.055Z,58.94
2023-04-16T15:54:49.001Z,60.52
2023-04-16T15:57:16.964Z,61.42
2023-04-16T15:59:59.541Z,61.28
2023-04-16T16:02:34.675Z,61.58
2023-04-16T16:05:03.349Z,62.06
2023-04-16T16:07:31.263Z,64.01
2023-04-16T16:09:59.260Z,62.79
2023-04-16T16:12:27.357Z,64.13
2023-04-16T16:14:56.832Z,64.84
2023-04-16T16:17:24.821Z,67.19
2023-04-16T16:19:52.839Z,69.46
2023-04-16T16:22:23.669Z,68.78
2023-04-16T16:24:52.060Z,70.84
2023-04-16T16:27:20.027Z,72.07
2023-04-16T16:29:48.023Z,72.78
2023-04-16T16:32:17.580Z,73.54
2023-04-16T16:34:45.692Z,74.49
2023-04-16T16:37:13.657Z,74.25
2023-04-16T16:39:41.647Z,76.38
2023-04-16T16:42:09.725Z,76.33
2023-04-16T16:44:38.003Z,77.48
2023-04-16T16:47:06.585Z,78.58
2023-04-16T16:49:36.022Z,79.62
2023-04-16T16:52:03.949Z,79.86
2023-04-16T16:54:32.028Z,81.84
2023-04-16T16:57:00.006Z,82.42
2023-04-16T16:59:27.940Z,82.88
2023-04-16T17:01:55.927Z,83.83
2023-04-16T17:04:24.088Z,83.58
2023-04-16T17:06:53.565Z,84.86
2023-04-16T17:09:21.538Z,85.44
2023-04-16T17:11:49.484Z,87.20
2023-04-16T17:14:17.440Z,87.91
2023-04-16T17:16:46.766Z,89.09
2023-04-16T17:19:15.416Z,90.23
2023-04-16T17:21:43.337Z,91.34
2023-04-16T17:24:12.815Z,92.64
2023-04-16T17:26:41.251Z,93.63
2023-04-16T17:29:09.262Z,95.17
2023-04-16T17:31:37.311Z,94.95
2023-04-16T17:34:06.367Z,94.96
2023-04-16T17:36:34.339Z,95.95
2023-04-16T17:39:02.291Z,94.69
2023-04-16T17:41:31.719Z,94.55
2023-04-16T17:43:59.695Z,94.81
2023-04-16T17:46:27.674Z,94.40
2023-04-16T17:48:55.656Z,94.24
2023-04-16T17:51:23.582Z,95.20
2023-04-16T17:53:51.946Z,94.90
2023-04-16T17:56:19.862Z,94.58
2023-04-16T17:58:49.154Z,96.32
2023-04-16T18:01:17.111Z,96.84
2023-04-16T18:03:45.454Z,99.06
2023-04-16T18:06:13.484Z,99.48
2023-04-16T18:08:41.445Z,100.00
2023-04-16T18:11:09.354Z,100.00
2023-04-16T18:13:37.310Z,100.00
2023-04-16T18:16:07.659Z,100.00
2023-04-16T18:18:35.769Z,100.00
2023-04-16T18:21:03.692Z,100.00
2023-04-16T18:23:31.674Z,100.00
2023-04-16T18:25:59.639Z,100.00
2023-04-16T18:28:27.930Z,100.00
2023-04-16T18:30:58.979Z,100.00
2023-04-16T18:33:52.411Z,100.00
2023-04-16T18:36:16.526Z,100.00
2023-04-16T18:38:59.331Z,100.00
2023-04-16T18:41:28.592Z,100.00
2023-04-16T18:43:56.582Z,100.00
2023-04-16T18:46:25.322Z,100.00
2023-04-16T18:48:54.791Z,100.00
2023-04-16T18:51:22.727Z,100.00
2023-04-16T18:53:50.734Z,100.00
2023-04-16T18:56:18.711Z,100.00
2023-04-16T18:58:47.857Z,100.00
2023-04-16T19:01:16.551Z,100.00
2023-04-16T19:03:45.608Z,100.00
2023-04-16T19:06:14.990Z,100.00
2023-04-16T19:08:42.969Z,100.00
2023-04-16T19:11:10.980Z,100.00
2023-04-16T19:13:39.301Z,100.00
2023-04-16T19:16:12.256Z,100.00
2023-04-16T19:18:40.369Z,100.00
2023-04-16T19:21:10.097Z,100.00
2023-04-16T19:23:39.453Z,100.00
2023-04-16T19:26:07.452Z,100.00
2023-04-16T19:28:35.395Z,100.00
2023-04-16T19:31:03.354Z,100.00
2023-04-16T19:33:31.406Z,100.00
2023-04-16T19:36:00.254Z,100.00
2023-04-16T19:38:28.191Z,100.00
2023-04-16T19:40:57.553Z,100.00
2023-04-16T19:43:25.465Z,100.00
2023-04-16T19:45:53.597Z,100.00
2023-04-16T19:48:21.604Z,100.00
2023-04-16T19:50:49.600Z,100.00
2023-04-16T19:53:17.574Z,100.00
2023-04-16T19:55:45.560Z,100.00
2023-04-16T19:58:15.088Z,100.00
2023-04-16T20:00:43.259Z,100.00
2023-04-16T20:03:11.426Z,100.00
2023-04-16T20:05:39.416Z,100.00
2023-04-16T20:08:07.699Z,100.00
2023-04-16T20:10:36.113Z,100.00
2023-04-16T20:13:04.995Z,100.00
2023-04-16T20:15:34.334Z,100.00
2023-04-16T20:18:02.327Z,100.00
2023-04-16T20:20:30.631Z,100.00
2023-04-16T20:22:59.714Z,100.00
2023-04-16T20:25:29.308Z,100.00
2023-04-16T20:27:57.318Z,100.00
2023-04-16T20:30:29.225Z,100.00
2023-04-16T20:32:58.649Z,100.00
2023-04-16T20:35:27.159Z,100.00
2023-04-16T20:37:55.125Z,100.00
2023-04-16T20:40:24.106Z,100.00
2023-04-16T20:42:52.215Z,100.00
2023-04-16T20:45:20.404Z,100.00
2023-04-16T20:47:48.379Z,100.00
2023-04-16T20:50:17.918Z,100.00
2023-04-16T20:52:45.909Z,100.00
2023-04-16T20:55:13.873Z,100.00
2023-04-16T20:57:41.801Z,100.00
2023-04-16T21:00:12.206Z,100.00
2023-04-16T21:02:40.444Z,100.00
2023-04-16T21:05:10.520Z,100.00
2023-04-16T21:07:39.838Z,100.00
2023-04-16T21:10:09.158Z,100.00
2023-04-16T21:12:37.289Z,100.00
2023-04-16T21:15:05.684Z,100.00
2023-04-16T21:17:33.660Z,100.00
2023-04-16T21:20:01.614Z,100.00
2023-04-16T21:22:29.587Z,100.00
2023-04-16T21:24:58.929Z,100.00
2023-04-16T21:27:26.876Z,100.00
2023-04-16T21:29:54.868Z,100.00
2023-04-16T21:32:22.892Z,100.00
2023-04-16T21:34:50.898Z,100.00
2023-04-16T21:37:18.845Z,100.00
2023-04-16T21:39:46.804Z,100.00
2023-04-16T21:42:16.104Z,100.00
2023-04-16T21:44:44.078Z,100.00
2023-04-16T21:47:12.038Z,100.00
2023-04-16T21:49:40.126Z,100.00
2023-04-16T21:52:14.099Z,100.00
2023-04-16T21:54:42.146Z,100.00
2023-04-16T21:57:10.138Z,100.00
2023-04-16T21:59:39.522Z,100.00
2023-04-16T22:02:07.578Z,100.00
2023-04-16T22:04:38.957Z,100.00
2023-04-16T22:07:08.809Z,100.00
2023-04-16T22:09:36.775Z,100.00
2023-04-16T22:12:06.913Z,100.00
2023-04-16T22:14:35.723Z,100.00
2023-04-16T22:17:05.052Z,100.00
2023-04-16T22:19:34.854Z,100.00
2023-04-16T22:22:02.854Z,100.00
2023-04-16T22:24:31.016Z,100.00
2023-04-16T22:26:58.989Z,100.00
2023-04-16T22:29:26.938Z,100.00
2023-04-16T22:31:55.212Z,100.00
2023-04-16T22:34:24.582Z,100.00
2023-04-16T22:36:52.554Z,100.00
2023-04-16T22:39:20.511Z,100.00
2023-04-16T22:41:48.505Z,100.00
2023-04-16T22:44:16.416Z,100.00
2023-04-16T22:46:45.183Z,100.00
2023-04-16T22:49:13.420Z,100.00
2023-04-16T22:51:43.448Z,100.00
2023-04-16T22:54:13.768Z,100.00
2023-04-16T22:56:42.006Z,100.00
2023-04-16T22:59:10.202Z,100.00
2023-04-16T23:01:38.663Z,100.00
2023-04-16T23:04:06.705Z,100.00
2023-04-16T23:06:34.660Z,100.00
2023-04-16T23:09:05.099Z,100.00
2023-04-16T23:11:33.097Z,100.00
2023-04-16T23:14:01.056Z,100.00
2023-04-16T23:16:29.021Z,100.00
2023-04-16T23:18:57.016Z,100.00
2023-04-16T23:21:24.971Z,100.00
2023-04-16T23:23:53.107Z,100.00
2023-04-16T23:26:22.411Z,100.00
2023-04-16T23:28:50.393Z,100.00
2023-04-16T23:31:18.413Z,100.00
2023-04-16T23:33:46.425Z,100.00
2023-04-16T23:36:14.412Z,100.00
2023-04-16T23:38:42.367Z,100.00
2023-04-16T23:41:10.334Z,100.00
2023-04-16T23:43:40.799Z,100.00
2023-04-16T23:46:08.832Z,100.00
2023-04-16T23:48:36.796Z,100.00
2023-04-16T23:51:05.199Z,100.00
2023-04-16T23:53:33.128Z,100.00
2023-04-16T23:56:01.041Z,100.00
2023-04-16T23:58:28.995Z,100.00
